Impacts TAF Board
For situational awareness. Not to be used for flight planning purposes.
IDs:

KSUA - Stuart/Witham Fld, FL, US

Issued at 0526 UTC 22 Oct 2021
Updated at 0621 UTC 22 Oct 2021
Potential Impact None Slight Moderate High
Time<<22/19Z 22/20Z 22/21Z 22/22Z 22/23Z 23/00Z 23/01Z 23/02Z 23/03Z 23/04Z 23/05Z 23/06Z 23/07Z>>
Type PRVL PRVL PRVL PRVL PRVL PRVL PRVL PRVL PRVL PRVL PRVL
VIS >6 >6 >6 >6 >6 >6 >6 >6 >6 >6 >6
CIG -- -- -- -- -- -- -- -- -- -- --
Cover SCT SCT SCT SCT SCT SCT SCT SCT SCT SCT SCT
FltCat VFR VFR VFR VFR VFR VFR VFR VFR VFR VFR VFR
WX VCSH VCSH VCSH VCSH VCSH VCSH VCSH VCSH VCSH VCSH VCSH
WDir 110 110 110 110 110 110 120 120 120 120 120
WSpd 6 8 8 8 8 8 6 6 6 6 6
WGst -- -- -- -- -- -- -- -- -- -- --
Raw TAF
KSUA 220526Z 2206/2306 11005KT P6SM SCT030 SCT100
  FM221500 11006KT P6SM VCSH SCT030 SCT060
  FM222000 11008KT P6SM VCSH SCT035 SCT080 SCT250
  FM230100 12006KT P6SM VCSH SCT040 SCT120 AMD NOT SKED


METAR Board
Radar Display
Forecast Discussion
For situational awareness. Not to be used for flight planning purposes.